Tropical Cyclones
[Index]
Main Index Home Page Stock Weather Photos Extreme Storms Discussion Storm News and Storm Chasing Reports Tropical Cyclones / Hurricanes / Typhoons Weather Data and Links Wild Fires / Bushfires Weather Observation Techniques Weather Picture Catalogue Tornado Pictures and Reports Stock Video Footage and DVDs for sale
Season 2002-2003 Tropical Cyclone ISHA Track Map
Season 2002-2003 Summaries: [BoM-AU] [JTWC-AU] [JTWC-SIO] [JTWC-SPAC] [JTWC-SH]
<<- Previous TC | JTWC 2002-2003 Season | Next TC ->>

click for intensity scale information  Lat/long Grid: Show Hide

 Date Labels: Show Hide

Joint Typhoon Warning Centre Cyclone Data

Name: ISHA

03 Feb 2003 18:00 UTC to 14 Feb 2003 12:00 UTC

    date/time    lat    long     hPa   cat  kts
2003-02-03 18    9.8    99.2    1006         15          
2003-02-04 00   10.2    99.0    1006         15          
2003-02-04 06   10.6    98.7    1002         25          
2003-02-04 12   10.8    98.2    1002         25          
2003-02-04 18   10.9    97.7    1002         25          
2003-02-05 00   11.0    97.2    1002         25          
2003-02-05 06   11.1    96.7    1002         25          
2003-02-05 12   11.1    96.2    1002         25          
2003-02-05 18   11.2    95.7    1002         25          
2003-02-06 00   11.2    95.0    1002         25          
2003-02-06 06   11.1    94.0    1002         25          
2003-02-06 12   10.7    93.0    1002         25          
2003-02-06 18   10.2    92.2    1002         25          
2003-02-07 00    9.7    91.7    1002         25          
2003-02-07 06    9.6    91.3    1002         25          
2003-02-07 12    9.4    91.0    1002         25          
2003-02-07 18    9.4    90.5    1002         25          
2003-02-08 00    9.4    90.0    1002         25          
2003-02-08 06    9.5    89.1    1002         25          
2003-02-08 12    9.6    88.2    1002         25          
2003-02-08 18    9.7    87.3    1002         25          
2003-02-09 00    9.9    86.6    1002         25          
2003-02-09 06   10.1    85.9    1002         25          
2003-02-09 12   10.5    85.3    1002         25          
2003-02-09 18   10.8    84.7    1002         25          
2003-02-10 00   11.1    84.0    1002         25          
2003-02-10 06   11.6    83.1    1002         25          
2003-02-10 12   12.3    82.4    1002         25          
2003-02-10 18   13.1    81.8    1000         30          
2003-02-11 00   14.0    81.2    1000         30          
2003-02-11 06   14.9    81.2    1000         30          
2003-02-11 12   15.5    81.6    1000         30          
2003-02-11 18   16.0    82.1     997         35          
2003-02-12 00   16.4    82.7     994    1    40          
2003-02-12 06   16.7    83.2     994    1    40          
2003-02-12 12   17.1    83.6     994    1    40          
2003-02-12 18   17.5    84.0     994    1    40          
2003-02-13 00   18.1    84.4     991    1    45          
2003-02-13 06   19.1    84.9     991    1    45          
2003-02-13 12   20.0    85.4     991    1    45          
2003-02-13 18   20.7    85.5     994    1    40          
2003-02-14 00   21.0    85.2     997         35          
2003-02-14 06   20.5    84.5     997         35          
2003-02-14 12   20.5    85.4     997         35          
Winds are 1-min average.

Tropical cyclone tracks developed by Michael Bath using data from the Joint Typhoon Warning Centre Best Tracks and Google Maps.


[Australian Severe Weather index] [Copyright Notice] [Email Contacts] [Search This Site] [Privacy Policy]
Document: tropical_cyclone_isha.htm Updated: 28 June 2017